Cdry Blue — ICOB — position and weather

sailwx.info

Track history (hours):
 
Tides and Currents Weather Stations Pressure Air Temp Water Temp Dewpoint Dewpoint Depression Visibility Wind Speed Wind Dir Waves Ship Positions

Cdry Blue

Last reported at 2015-May-28 05:17 UTC. Time now 2015-May-29 16:28 UTC.
Position N 37°53' E 015°52'.

Length 108 m; draft 4.7 m.

Type: Cargo ship. MMSI: 247289300.

Date/timePositionNaut miles runAvg speedWind from/ knotsBaromVisibWave heightAir tempDewpointWater temp
2015-May-28 05:17N 37°53' E 015°52'912.7
2015-May-28 04:33N 37°54' E 015°40'1111.1
2015-May-28 03:33N 38°04' E 015°35'1212.4
2015-May-28 02:33N 38°16' E 015°40'1212.3
2015-May-28 01:34N 38°21' E 015°26'1313.4
2015-May-28 00:33N 38°20' E 015°09'1313.1
2015-May-27 23:33N 38°20' E 014°52'1312.8
2015-May-27 22:31N 38°19' E 014°35'2912.7
2015-May-27 20:12N 38°18' E 013°58'813.0
2015-May-27 19:33N 38°18' E 013°47'1312.8
2015-May-27 18:33N 38°18' E 013°31'1312.5
2015-May-27 17:33N 38°18' E 013°15'1212.5
2015-May-27 16:33N 38°18' E 012°59'1512.9
2015-May-27 15:26N 38°18' E 012°41'18212.8
2015-May-27 01:14N 38°37' E 008°50'913.1
2015-May-27 00:32N 38°37' E 008°38'20612.8
2015-May-26 08:25N 38°58' E 004°15'1113.1
2015-May-26 07:33N 38°59' E 004°00'1313.6
2015-May-26 06:34N 39°01' E 003°43'1413.5
2015-May-26 05:33N 39°02' E 003°26'1313.3
2015-May-26 04:33N 39°03' E 003°09'1313.0
2015-May-26 03:33N 39°05' E 002°52'1313.0
2015-May-26 02:33N 39°08' E 002°36'1313.2
2015-May-26 01:33N 39°11' E 002°19'1313.4
2015-May-26 00:33N 39°14' E 002°02'1313.2
2015-May-25 23:33N 39°17' E 001°46'1313.0
2015-May-25 22:33N 39°20' E 001°29'1312.9
2015-May-25 21:33N 39°23' E 001°13'5212.9
2015-May-25 17:30N 39°34' E 000°07'1212.7
2015-May-25 16:33N 39°37' W 000°08'4 3.0
2015-May-25 15:12N 39°39' W 000°13'0 0.0
2015-May-25 14:24N 39°39' W 000°13'0 0.0
2015-May-24 10:06N 39°39' W 000°13'0 0.0
2015-May-24 02:06N 39°39' W 000°13'0 0.0
2015-May-23 11:14N 39°39' W 000°13'5 2.9
2015-May-23 09:32N 39°38' W 000°06'  
2015-May-20 16:07N 38°40' E 008°31'5 8.1
2015-May-20 15:33N 38°40' E 008°37'10 8.5
2015-May-20 14:23N 38°40' E 008°50'14411.2
2015-May-20 01:33N 38°29' E 011°53'1111.0
2015-May-20 00:33N 38°28' E 012°07'1110.5
2015-May-19 23:33N 38°27' E 012°20'1210.8
2015-May-19 22:29N 38°26' E 012°35'1011.1
2015-May-19 21:33N 38°25' E 012°48'1111.0
2015-May-19 20:34N 38°25' E 013°02'1111.3
2015-May-19 19:33N 38°24' E 013°17'1111.0
2015-May-19 18:34N 38°24' E 013°31'1110.9
2015-May-19 17:33N 38°23' E 013°45'1511.4
2015-May-19 16:17N 38°22' E 014°03'3111.5
2015-May-19 13:34N 38°20' E 014°43'  
Track history (hours):
 
Tides and Currents Weather Stations Pressure Air Temp Water Temp Dewpoint Dewpoint Depression Visibility Wind Speed Wind Dir Waves Ship Positions

Cdry Blue

Last reported at 2015-May-28 05:17 UTC. Time now 2015-May-29 16:28 UTC.
Position N 37°53' E 015°52'.

Length 108 m; draft 4.7 m.

Type: Cargo ship. MMSI: 247289300.

Date/timePositionNaut miles runAvg speedWind from/ knotsBaromVisibWave heightAir tempDewpointWater temp
2015-May-28 05:17N 37°53' E 015°52'912.7
2015-May-28 04:33N 37°54' E 015°40'1111.1
2015-May-28 03:33N 38°04' E 015°35'1212.4
2015-May-28 02:33N 38°16' E 015°40'1212.3
2015-May-28 01:34N 38°21' E 015°26'1313.4
2015-May-28 00:33N 38°20' E 015°09'1313.1
2015-May-27 23:33N 38°20' E 014°52'1312.8
2015-May-27 22:31N 38°19' E 014°35'2912.7
2015-May-27 20:12N 38°18' E 013°58'813.0
2015-May-27 19:33N 38°18' E 013°47'1312.8
2015-May-27 18:33N 38°18' E 013°31'1312.5
2015-May-27 17:33N 38°18' E 013°15'1212.5
2015-May-27 16:33N 38°18' E 012°59'1512.9
2015-May-27 15:26N 38°18' E 012°41'18212.8
2015-May-27 01:14N 38°37' E 008°50'913.1
2015-May-27 00:32N 38°37' E 008°38'20612.8
2015-May-26 08:25N 38°58' E 004°15'1113.1
2015-May-26 07:33N 38°59' E 004°00'1313.6
2015-May-26 06:34N 39°01' E 003°43'1413.5
2015-May-26 05:33N 39°02' E 003°26'1313.3
2015-May-26 04:33N 39°03' E 003°09'1313.0
2015-May-26 03:33N 39°05' E 002°52'1313.0
2015-May-26 02:33N 39°08' E 002°36'1313.2
2015-May-26 01:33N 39°11' E 002°19'1313.4
2015-May-26 00:33N 39°14' E 002°02'1313.2
2015-May-25 23:33N 39°17' E 001°46'1313.0
2015-May-25 22:33N 39°20' E 001°29'1312.9
2015-May-25 21:33N 39°23' E 001°13'5212.9
2015-May-25 17:30N 39°34' E 000°07'1212.7
2015-May-25 16:33N 39°37' W 000°08'4 3.0
2015-May-25 15:12N 39°39' W 000°13'0 0.0
2015-May-25 14:24N 39°39' W 000°13'0 0.0
2015-May-24 10:06N 39°39' W 000°13'0 0.0
2015-May-24 02:06N 39°39' W 000°13'0 0.0
2015-May-23 11:14N 39°39' W 000°13'5 2.9
2015-May-23 09:32N 39°38' W 000°06'  
2015-May-20 16:07N 38°40' E 008°31'5 8.1
2015-May-20 15:33N 38°40' E 008°37'10 8.5
2015-May-20 14:23N 38°40' E 008°50'14411.2
2015-May-20 01:33N 38°29' E 011°53'1111.0
2015-May-20 00:33N 38°28' E 012°07'1110.5
2015-May-19 23:33N 38°27' E 012°20'1210.8
2015-May-19 22:29N 38°26' E 012°35'1011.1
2015-May-19 21:33N 38°25' E 012°48'1111.0
2015-May-19 20:34N 38°25' E 013°02'1111.3
2015-May-19 19:33N 38°24' E 013°17'1111.0
2015-May-19 18:34N 38°24' E 013°31'1110.9
2015-May-19 17:33N 38°23' E 013°45'1511.4
2015-May-19 16:17N 38°22' E 014°03'3111.5
2015-May-19 13:34N 38°20' E 014°43'  

Dump ship's entire track history